今日のアクセス数

    岡山グライダークラブ活動状況掲示板

岡山グライダークラブ
岡山市浦安南町639-1 岡南飛行場
 使用機:シャイベ式 SF25C型 ファルケ   JA2330
      ヴァレンティン式17E型 タイフーン  JA2342
 練習日:毎日曜日  クラブルーム:電話 086-265-1810
この掲示板は岡山グライダークラブの活動状況をお知らせする掲示板です。
!!!この掲示板は投稿規制をしています。!!!
クラブ関連各種情報は 岡山グライダークラブクラブルーム      を       .
  ブリーフイング情報は  岡山グライダークラブブリーフィングルーム  をご覧下さい。 .
※写真はクリックすると拡大して見ることが出来ます。
岡南飛行場へのアクセス等は 岡南飛行場管理事務所 をご覧ください。
クラブの ホームページ ができました。

!!!新型コロナ感染症の感染急拡大を受け見学者等の受入を中止しております。再開まで今しばらくお待ちください!!!

ページ 1 (1〜10)ホームページへ戻る

10月02日
by OGC at 2022/10/2(日) 18:44:12 No.20221002184114 コメント】  削除 引用
640 x 480 x 81,153バイト
No.1

10月02日
本日の参加者
  会員      12名
  その他     02名


@本日の様子






METAR
RJOB 020000Z VRB02KT 9999 FEW025 23/15 Q1021
RJOT 020000Z 05006KT 010V080 CAVOK 23/19 Q1021
RJOA 020000Z VRB01KT CAVOK 22/17 Q1022
TAF
RJOB 012307Z 0200/0306 10004KT 9999 FEW030
     BECMG 0201/0203 23005KT
     BECMG 0209/0211 02004KT
RJOT 012307Z 0200/0306 06004KT 9999 FEW030
RJOA 012306Z 0200/0306 15004KT 9999 FEW030
     BECMG 0212/0215 35005KT
     BECMG 0300/0303 15004KT

本日は晴れ、風は穏やかで、上昇気流もなく、基礎訓練日和でした。
訓練生は実地試験に向け、科目の練習に出たり、ソロチェックを行ったりしていました。
一方、ライセンサーは操縦教育証明の訓練やTGL訓練を実施していました。
また、コロナも収まりつつあることから、今月から見学のみ制限解除し、
来月から通常通りに制限を解除する予定です。

解散    17:00

1番機  10:25離陸 撤収機  16:20着陸 

SF25C JA2330 ファルケ     09Flt.3h05min  
17E   JA2342 タイフーン    00Flt.0h00min
合計                    09Flt.3h05min
09月25日
by OGC at 2022/9/25(日) 19:32:15 No.20220925193039 コメント】  削除 引用
640 x 480 x 80,580バイト
No.1

09月25日
本日の参加者
  会員      14名
  その他     00名


@本日の様子






METAR
RJBK 250000Z 08003KT 350V110 30KM FEW030CU BKN/// 21/14 Q1016 A3003
RJOB 250000Z 04003KT 350V100 9999 FEW030 SCT180 BKN/// 20/11 Q1017
RJOT 250000Z 09007KT 060V150 9999 FEW025 SCT170 BKN/// 21/15 Q1017
RJOA 250000Z 09005KT 060V150 9999 FEW020 SCT160 BKN/// 19/13 Q1017
TAF
RJOB 242305Z 2500/2606 08004KT 9999 FEW030
RJOT 242306Z 2500/2606 07008KT 9999 FEW025
RJOA 242305Z 2500/2606 12006KT 9999 FEW025
     BECMG 2512/2515 32007KT

本日は晴れ、風は穏やか、訓練生は実地試験に向け、科目の練習に出たり、TGLの訓練をしたり
各々の課題克服に向け、がんばっていました。一方、ライセンサーは上昇気流を探して飛び回って
いましたが、今日は上がらない一日だったようです。


解散    18:00

1番機  10:35離陸 撤収機  17:00着陸 

SF25C JA2330 ファルケ     09Flt.3h40min  
17E   JA2342 タイフーン    00Flt.0h00min
合計                    09Flt.3h40min

09月23日
by OGC at 2022/9/24(土) 01:28:27 No.20220924012226 コメント】  削除 引用
640 x 480 x 79,708バイト
No.1

09月23日
本日の参加者
  会員      08名
  その他     00名


@本日の様子






METAR
RJBK 230000Z 06003KT 010V090 25KM FEW020CU SCT040CU BKN060SC 23/21 Q1011 A2987
RJOB 230000Z 06006KT 9999 PRFG FEW000 SCT009 BKN015 22/20 Q1012
RJOT 230000Z 06005KT 030V100 5000 -SHRA PRFG BR FEW000 SCT003 BKN005 22/22 Q1011
RJOA 230000Z 05006KT 8000 BCFG FEW000 SCT005 BKN009 21/21 Q1012
TAF
RJOB 222310Z 2300/2406 03004KT 9999 FEW005 SCT008 BKN020
     TEMPO 2300/2302 FEW003 BKN008 BKN015
     TEMPO 2302/2305 4000 SHRA BR FEW001 BKN005 BKN008
     BECMG 2306/2308 29006KT
RJOT 222310Z 2300/2406 02006KT 9000 -SHRA FEW003 SCT008 BKN015
     TEMPO 2300/2302 FEW000 SCT005 BKN008
     BECMG 2305/2307 29008KT
RJOA 222309Z 2300/2406 06005KT 8000 -SHRA FEW005 SCT008 BKN015
     TEMPO 2300/2305 4000 -SHRA BR FEW001 SCT003 BKN005
     BECMG 2306/2308 33008KT

本日は曇りで風も穏やかなため、訓練生は実地試験に向け、ナビの練習に出たり、TGLの訓練をしたり、各々の課題克服に向け、がんばっていました。


解散    18:00

1番機  10:35離陸 撤収機  14:05着陸 

SF25C JA2330 ファルケ     04Flt.1h35min  
17E   JA2342 タイフーン    00Flt.0h00min
合計                    04Flt.1h35min
09月11日
by OGC at 2022/9/11(日) 20:13:58 No.20220911201236 コメント】  削除 引用
640 x 480 x 81,103バイト
No.1

09月11日
本日の参加者
  会員      15名
  その他     00名


@本日の様子






METAR
RJBK 110000Z 09003KT 030V140 25KM FEW030CU SCT060SC BKN120AC 26/23 Q1014 A2997
RJOB 110000Z 08005KT 9999 FEW005 SCT040 BKN070 24/23 Q1016
RJOT 110000Z 05003KT 360V090 9999 FEW005 SCT010 BKN015 26/24 Q1015
RJOA 110000Z 05002KT 2000 -SHRA BCFG BR FEW000 SCT004 BKN008 23/23 Q1016
TAF
RJOB 102306Z 1100/1206 12005KT 9999 FEW020 SCT040
RJOT 102308Z 1100/1206 06007KT 9999 FEW025 SCT045
RJOA 102305Z 1100/1206 15005KT 9999 FEW015 SCT025 BKN035
     TEMPO 1100/1101 3000 -SHRA BR FEW003 SCT005 BKN008
     TEMPO 1103/1109 TS FEW010 SCT020 FEW025CB BKN030
     BECMG 1108/1110 32004KT
     BECMG 1121/1200 12005KT

本日は晴れで風も穏やかなため、訓練生はソロナビに出たり、TGLの訓練をしたり、
各々の課題克服に向け、がんばっていました。


解散    18:00

1番機  10:40離陸 撤収機  17:40着陸 

SF25C JA2330 ファルケ     10Flt.4h20min  
17E   JA2342 タイフーン    00Flt.0h00min
合計                    10Flt.4h20min
09月04日
by OGC at 2022/9/4(日) 20:39:11 No.20220904203706 コメント】  削除 引用
640 x 480 x 82,541バイト
No.1

09月04日
本日の参加者
  会員      13名
  その他     00名


@本日の様子






METAR
RJBK 040000Z 06005KT 020V100 25KM FEW015CU SCT020CU BKN030CU 27/24 Q1004 A2996
RJOB 040000Z 10004KT 9999 FEW008 BKN010 BKN020 26/23 Q1015
RJOT 040000Z 11004KT 050V180 9999 FEW015 SCT/// 29/23 Q1014
RJOA 040000Z 12006KT 080V160 9999 FEW010 BKN015 25/23 Q1015
TAF
RJOB 032307Z 0400/0506 11009KT 9999 FEW020 SCT040
RJOT 032307Z 0400/0506 12006KT 9999 FEW015 SCT030
RJOA 032305Z 0400/0506 12008KT 9999 FEW015 SCT030

本日は晴れのち一時雨、湿度が高くサーマルを期待しましたが、今一つサーマルが小さく
うまく捕まえることができませんでした。
訓練生はソロフライトに出たり、TGL訓練をしたり、サーマルを探したりと各々に課題
克服のために頑張っていました。


解散    18:00

1番機  10:35離陸 撤収機  17:35着陸 

SF25C JA2330 ファルケ     11Flt.4h10min  
17E   JA2342 タイフーン    00Flt.0h00min
合計                    11Flt.4h10min
08月28日
by OGC at 2022/8/28(日) 20:31:33 No.20220828202916 コメント】  削除 引用
640 x 480 x 75,762バイト
No.1

08月21日
本日の参加者
  会員      13名
  その他     03名


@本日の様子






METAR
RJBK 280000Z 02005KT 320V100 30KM FEW025CU BKN/// 25/18 Q1012 A2991
RJOB 280000Z 01004KT 280V070 9999 FEW020 BKN/// 23/17 Q1013
RJOT 280000Z 01005KT 340V050 9999 FEW020 SCT030 BKN/// 24/19 Q1013
RJOA 280000Z 36007KT 320V030 9999 FEW025 SCT160 BKN/// 23/16 Q1014
TAF
RJOB 272307Z 2800/2906 02006KT 9999 FEW025
RJOT 272306Z 2800/2906 21004KT 9999 FEW025 SCT040
     BECMG 2800/2802 03005KT
RJOA 272307Z 2800/2906 35007KT 9999 FEW025
     BECMG 2800/2802 16004KT

本日は曇り、サーマルは期待できませんが風も弱く飛びやすい天候でした。
ファルケの耐空検査が終わり、今日から本格的に運用再開となりました。
久しぶりのフライトで慣熟訓練したり、ソロナビに出たり、各々にフライト
を楽しんでいました。


解散    18:00

1番機  10:25離陸 撤収機  17:15着陸 

SF25C JA2330 ファルケ     11Flt.3h40min  
17E   JA2342 タイフーン    00Flt.0h00min
合計                    11Flt.3h40min
08月21日
by OGC at 2022/8/21(日) 22:12:28 No.20220821221106 コメント】  削除 引用
640 x 480 x 76,934バイト
No.1

08月21日
本日の参加者
  会員      13名
  その他     03名


@本日の様子






METAR
RJBK 210000Z 08003KT 15KM +SHRA FEW006ST SCT015CU FEW020CB BKN060SC 26/25 Q1004 A2996 RMK CB SE
RJOB 210000Z 13003KT 080V190 9000 FEW003 SCT007 BKN060 26/25 Q1005
RJOT 210000Z 07004KT 350V100 5000 -SHRA BR FEW001 SCT004 BKN008 FEW025CB 25/25 Q1005
RJOA 210000Z 04006KT 3000 R10/1400VP1800D SHRA BCFG BR FEW000 SCT015 BKN025 24/23 Q1006
TAF
RJOB 202308Z 2100/2206 08007KT 8000 -SHRA FEW003 SCT008 BKN015
     TEMPO 2100/2105 4000 SHRA BR BCFG FEW000 SCT003 BKN005
RJOT 202308Z 2100/2206 20004KT 9000 -SHRA FEW005 SCT015 BKN020
     TEMPO 2100/2109 2000 TSRA BR BCFG FEW000 SCT003 BKN005 FEW020CB
     BECMG 2101/2103 12005KT
     TEMPO 2118/2200 4000 BR FEW003 SCT005 BKN008
RJOA 202306Z 2100/2206 13005KT 8000 -SHRA FEW005 SCT010 BKN020
     TEMPO 2100/2106 3000 TSRA BR BCFG FEW000 SCT005 BKN008 FEW020CB
     TEMPO 2106/2112 4000 -SHRA BR BCFG FEW000 SCT005 BKN008

本日は、何時、雨が降っても不思議ではない天候でした。県北や四国方面では巨大な積雲が発達して雨模様でしたが、
そこは晴れの岡南飛行場、ほぼ雨が降ることはありませんでした。
ファルケの整備も終わり、社内試験、耐空検査を実施しました。


解散    17:30

1番機  14:35離陸 撤収機  17:30着陸 

SF25C JA2330 ファルケ     05Flt.1h40min  
17E   JA2342 タイフーン    00Flt.0h00min
合計                    05Flt.1h40min
08月07日
by OGC at 2022/8/7(日) 23:28:50 No.20220807232241 コメント】  削除 引用
640 x 480 x 76,679バイト
No.1

08月07日
本日の参加者
  会員      14名
  その他     01名


@本日の様子






METAR
RJBK 070000Z 15003KT 20KM FEW025CU BKN035CU 30/25 Q1010 A2984
RJOB 070000Z 19003KT 130V280 9999 FEW010 SCT015 29/25 Q1011
RJOT 070000Z VRB01KT 9999 FEW025 31/25 Q1011
RJOA 070000Z VRB02KT 9999 FEW010 SCT020 28/24 Q1012
TAF
RJOB 062305Z 0700/0806 17006KT 8000 -SHRA FEW015 BKN040
     TEMPO 0703/0710 -TSRA FEW008 SCT020 FEW025CB BKN035
     BECMG 0707/0709 04004KT
     BECMG 0721/0800 20007KT
RJOT 070024Z 0700/0806 03005KT 8000 -SHRA FEW008 SCT015 BKN035
     TEMPO 0700/0709 4000 TSRA BR FEW008 SCT015 FEW020CB BKN030
RJOA 062305Z 0700/0806 19006KT 9999 FEW015 SCT040
     TEMPO 0703/0710 -TSRA FEW008 SCT015 FEW020CB BKN035

本日の天気は晴れで昼過ぎからTSRAの予報が出ていました。タイ
フーンは1年越しの念願の新見方面へローカルフライトを行うことが
でき、ファルケは先週に続き本日も耐空検査のための整備です。


解散    17:30

1番機  11:00離陸 撤収機  14:35着陸 

SF25C JA2330 ファルケ     00Flt.0h00min  
17E   JA2342 タイフーン    03Flt.2h10min
合計                    03Flt.2h10min
07月31日
by OGC at 2022/8/1(月) 00:14:23 No.20220801001230 コメント】  削除 引用
640 x 480 x 82,358バイト
No.1

07月31日
本日の参加者
  会員      11名
  その他     00名


@本日の様子






METAR
RJBK 310100Z 09007KT 20KM -SHRA FEW015CU SCT030CU BKN060SC 28/25 Q1013 A2994
RJOB 310100Z 15006KT 110V180 9999 FEW015 SCT025 BKN045 29/24 Q1015
RJOT 310100Z 32004KT 250V020 9999 VCSH FEW015 SCT050 BKN140 30/25 Q1014
RJOA 310100Z 10006KT 9999 FEW003 SCT090 BKN140 25/24 Q1015
TAF
RJOB 302306Z 3100/0106 12008KT 9999 FEW020 SCT045
RJOT 302307Z 3100/0106 06005KT 8000 -SHRA FEW015 SCT030 BKN040
     BECMG 3103/3105 32004KT
     TEMPO 3103/3106 -TSRA FEW010 SCT020 FEW025CB BKN030
     BECMG 3108/3110 12005KT
RJOA 310017Z 3100/0106 12006KT 9999 FEW025
     TEMPO 3100/3103 3000 -SHRA BR BCFG FEW000 BKN008 BKN015

本日の天気は晴れ。先週に続き本日も耐空検査のための整備です。
一方、タイフーンはNAV訓練を行っていました。

解散    17:30

1番機  11:25離陸 撤収機  16:50着陸 

SF25C JA2330 ファルケ     00Flt.0h00min  
17E   JA2342 タイフーン    04Flt.1h35min
合計                    04Flt.1h35min
07月24日
by OGC at 2022/7/25(月) 04:20:48 No.20220725041816 コメント】  削除 引用
640 x 480 x 86,296バイト
No.1

07月24日
本日の参加者
  会員      17名
  その他     02名


@本日の様子






METAR
RJOB 240000Z VRB02KT 9999 FEW020 SCT160 BKN/// 24/20 Q1008
RJOT 240000Z 04004KT 360V100 9999 FEW020 BKN/// 27/21 Q1008
RJOA 240000Z 12003KT 080V180 9999 FEW025 SCT100 BKN/// 24/20 Q1009
TAF
RJOB 232305Z 2400/2506 11004KT 9999 FEW025
     BECMG 2401/2403 16006KT
     BECMG 2405/2407 11006KT
     BECMG 2500/2503 16005KT
RJOT 232305Z 2400/2506 05007KT 9999 FEW025
RJOA 232305Z 2400/2506 15004KT 9999 FEW030
     BECMG 2401/2403 20005KT

本日の天気は晴れ。本日から耐空検査のための整備です。
また、海外でお住まいの学生会員の両親が見学に来られました。

解散    17:00

1番機  11:50離陸 撤収機  12:00着陸 

SF25C JA2330 ファルケ     00Flt.0h00min  
17E   JA2342 タイフーン    01Flt.0h10min
合計                    01Flt.0h10min
ホームページへ 全 59 件 [ 1 2 3 4 5 6 ]

モータースポーツ | 管理者へメール | お知らせ | 一括削除
携帯から使う方法 | ヘルプ | 利用規約 | 違反報告 | 管理パネル



- 無料レンタル掲示板 -